Terminal Aerodrome Forecast
Issued by NWS

Home | Current Version | Previous Version | Text Only | Print | Product List | Glossary On
Versions: 1 2 3 4 5 6 7 8 9 10 11 12 13 14
000
FTUS42 TJSJ 290522
TAFKPK
TAF
TKPK 290522Z 2906/3006 08010KT P6SM VCSH SCT018 BKN040
      TEMPO 2906/2908 SHRA BKN015
     FM291330 09012KT P6SM VCSH SCT020 SCT060
     FM292330 08008KT P6SM SCT018
      AMD NOT SKED TIL 291100=

USA.gov is the U.S. government's official web portal to all federal, state and local government web resources and services.